Time,TemperatureF,DewpointF,PressureIn,WindDirection,WindDirectionDegrees,WindSpeedMPH,WindSpeedGustMPH,Humidity,HourlyPrecipIn,Conditions,Clouds,dailyrainin,SoftwareType,DateUTC
2013-02-07 00:00:00,14.0,4.1,30.16,West,270,0.2,0.2,64,0.00,,,0.00,WUHU216HW,2013-02-07 05:00:00,
2013-02-07 00:05:00,14.0,4.1,30.16,West,270,0.2,0.2,64,0.00,,,0.00,WUHU216HW,2013-02-07 05:05:00,
2013-02-07 00:30:00,13.3,3.0,30.17,North,0,1.1,1.1,63,0.00,,,0.00,WUHU216HW,2013-02-07 05:30:00,
2013-02-07 00:35:00,13.3,3.0,30.17,North,0,1.1,1.1,63,0.00,,,0.00,WUHU216HW,2013-02-07 05:35:00,
2013-02-07 01:00:00,12.8,2.4,30.17,North,0,1.6,1.6,63,0.00,,,0.00,WUHU216HW,2013-02-07 06:00:00,
2013-02-07 01:01:00,12.8,2.4,30.17,North,0,1.6,1.6,63,0.00,,,0.00,WUHU216HW,2013-02-07 06:01:00,
2013-02-07 01:05:00,12.8,2.4,30.17,North,0,1.6,1.6,63,0.00,,,0.00,WUHU216HW,2013-02-07 06:05:00,
2013-02-07 01:06:00,12.8,2.4,30.17,North,0,1.6,1.6,63,0.00,,,0.00,WUHU216HW,2013-02-07 06:06:00,
2013-02-07 01:30:00,11.9,0.9,30.17,North,0,0.2,0.2,61,0.00,,,0.00,WUHU216HW,2013-02-07 06:30:00,
2013-02-07 01:31:00,11.9,0.9,30.17,North,0,0.2,0.2,61,0.00,,,0.00,WUHU216HW,2013-02-07 06:31:00,
2013-02-07 01:35:00,11.9,0.9,30.17,North,0,0.2,0.2,61,0.00,,,0.00,WUHU216HW,2013-02-07 06:35:00,
2013-02-07 01:36:00,11.9,0.9,30.17,North,0,0.2,0.2,61,0.00,,,0.00,WUHU216HW,2013-02-07 06:36:00,
2013-02-07 02:00:00,11.2,0.9,30.17,North,0,0.0,0.0,63,0.00,,,0.00,WUHU216HW,2013-02-07 07:00:00,
2013-02-07 02:05:00,11.2,0.9,30.17,North,0,0.0,0.0,63,0.00,,,0.00,WUHU216HW,2013-02-07 07:05:00,
2013-02-07 02:30:00,10.4,-0.1,30.19,SSW,203,0.0,0.0,62,0.00,,,0.00,WUHU216HW,2013-02-07 07:30:00,
2013-02-07 02:35:00,10.4,-0.1,30.19,SSW,203,0.0,0.0,62,0.00,,,0.00,WUHU216HW,2013-02-07 07:35:00,
2013-02-07 03:00:00,9.4,-0.8,30.21,WSW,248,0.7,0.7,63,0.00,,,0.00,WUHU216HW,2013-02-07 08:00:00,
2013-02-07 03:05:00,9.4,-0.8,30.21,WSW,248,0.7,0.7,63,0.00,,,0.00,WUHU216HW,2013-02-07 08:05:00,
2013-02-07 03:30:00,9.7,-1.1,30.20,SSW,203,0.0,0.0,61,0.00,,,0.00,WUHU216HW,2013-02-07 08:30:00,
2013-02-07 03:35:00,9.7,-1.1,30.20,SSW,203,0.0,0.0,61,0.00,,,0.00,WUHU216HW,2013-02-07 08:35:00,
2013-02-07 04:00:00,9.2,-1.6,30.21,SSW,203,0.0,0.0,61,0.00,,,0.00,WUHU216HW,2013-02-07 09:00:00,
2013-02-07 04:05:00,9.2,-1.6,30.21,SSW,203,0.0,0.0,61,0.00,,,0.00,WUHU216HW,2013-02-07 09:05:00,
2013-02-07 04:30:00,8.8,-2.7,30.21,SSW,203,0.0,0.0,59,0.00,,,0.00,WUHU216HW,2013-02-07 09:30:00,
2013-02-07 04:35:00,8.8,-2.7,30.21,SSW,203,0.0,0.0,59,0.00,,,0.00,WUHU216HW,2013-02-07 09:35:00,
2013-02-07 05:00:00,8.5,-2.7,30.21,SSW,203,0.0,0.0,60,0.00,,,0.00,WUHU216HW,2013-02-07 10:00:00,
2013-02-07 05:05:00,8.5,-2.7,30.21,SSW,203,0.0,0.0,60,0.00,,,0.00,WUHU216HW,2013-02-07 10:05:00,
2013-02-07 05:30:00,8.3,-2.9,30.22,SSW,203,0.0,0.0,60,0.00,,,0.00,WUHU216HW,2013-02-07 10:30:00,
2013-02-07 05:35:00,8.3,-2.9,30.22,SSW,203,0.0,0.0,60,0.00,,,0.00,WUHU216HW,2013-02-07 10:35:00,
2013-02-07 06:00:00,8.3,-2.9,30.24,SSW,203,0.0,0.0,60,0.00,,,0.00,WUHU216HW,2013-02-07 11:00:00,
2013-02-07 06:05:00,8.3,-2.9,30.24,SSW,203,0.0,0.0,60,0.00,,,0.00,WUHU216HW,2013-02-07 11:05:00,
2013-02-07 06:30:00,8.6,-2.5,30.26,SSW,203,0.0,0.0,60,0.00,,,0.00,WUHU216HW,2013-02-07 11:30:00,
2013-02-07 06:35:00,8.6,-2.5,30.26,SSW,203,0.0,0.0,60,0.00,,,0.00,WUHU216HW,2013-02-07 11:35:00,
2013-02-07 07:00:00,8.1,-3.8,30.26,SSW,203,0.4,0.4,58,0.00,,,0.00,WUHU216HW,2013-02-07 12:00:00,
2013-02-07 07:05:00,8.1,-3.8,30.26,SSW,203,0.4,0.4,58,0.00,,,0.00,WUHU216HW,2013-02-07 12:05:00,
2013-02-07 07:30:00,7.9,-4.0,30.28,SSW,203,0.9,0.9,58,0.00,,,0.00,WUHU216HW,2013-02-07 12:30:00,
2013-02-07 07:35:00,7.9,-4.0,30.28,SSW,203,0.9,0.9,58,0.00,,,0.00,WUHU216HW,2013-02-07 12:35:00,
2013-02-07 08:00:00,8.1,-4.5,30.29,SSW,203,0.0,0.0,56,0.00,,,0.00,WUHU216HW,2013-02-07 13:00:00,
2013-02-07 08:05:00,8.1,-4.5,30.29,SSW,203,0.0,0.0,56,0.00,,,0.00,WUHU216HW,2013-02-07 13:05:00,
2013-02-07 08:30:00,9.9,-3.9,30.30,SSW,203,0.2,0.2,53,0.00,,,0.00,WUHU216HW,2013-02-07 13:30:00,
2013-02-07 08:35:00,9.9,-3.9,30.30,SSW,203,0.2,0.2,53,0.00,,,0.00,WUHU216HW,2013-02-07 13:35:00,
2013-02-07 09:00:00,12.8,-0.4,30.30,NW,315,0.4,0.4,55,0.00,,,0.00,WUHU216HW,2013-02-07 14:00:00,
2013-02-07 09:05:00,12.8,-0.4,30.30,NW,315,0.4,0.4,55,0.00,,,0.00,WUHU216HW,2013-02-07 14:05:00,
2013-02-07 09:30:00,14.8,3.3,30.31,NW,315,0.4,0.4,60,0.00,,,0.00,WUHU216HW,2013-02-07 14:30:00,
2013-02-07 09:35:00,14.8,3.3,30.31,NW,315,0.4,0.4,60,0.00,,,0.00,WUHU216HW,2013-02-07 14:35:00,
2013-02-07 10:00:00,16.4,5.6,30.31,North,0,3.6,3.6,62,0.00,,,0.00,WUHU216HW,2013-02-07 15:00:00,
2013-02-07 10:05:00,16.4,5.6,30.31,North,0,3.6,3.6,62,0.00,,,0.00,WUHU216HW,2013-02-07 15:05:00,
2013-02-07 10:30:00,18.7,7.7,30.30,North,0,1.6,1.6,62,0.00,,,0.00,WUHU216HW,2013-02-07 15:30:00,
2013-02-07 10:35:00,18.7,7.7,30.30,North,0,1.6,1.6,62,0.00,,,0.00,WUHU216HW,2013-02-07 15:35:00,
2013-02-07 11:00:00,18.9,7.3,30.29,North,0,2.5,2.5,60,0.00,,,0.00,WUHU216HW,2013-02-07 16:00:00,
2013-02-07 11:04:00,18.9,7.3,30.29,North,0,2.5,2.5,60,0.00,,,0.00,WUHU216HW,2013-02-07 16:04:00,
2013-02-07 11:05:00,18.9,7.3,30.29,North,0,2.5,2.5,60,0.00,,,0.00,WUHU216HW,2013-02-07 16:05:00,
2013-02-07 11:30:00,20.5,6.8,30.29,North,0,3.4,3.4,55,0.00,,,0.00,WUHU216HW,2013-02-07 16:30:00,
2013-02-07 11:35:00,20.5,6.8,30.29,North,0,3.4,3.4,55,0.00,,,0.00,WUHU216HW,2013-02-07 16:35:00,
2013-02-07 12:00:00,22.1,7.9,30.26,North,0,6.9,6.9,54,0.00,,,0.00,WUHU216HW,2013-02-07 17:00:00,
2013-02-07 12:05:00,22.1,7.9,30.26,North,0,6.9,6.9,54,0.00,,,0.00,WUHU216HW,2013-02-07 17:05:00,
2013-02-07 12:30:00,24.1,9.4,30.25,SSW,203,1.3,1.3,53,0.00,,,0.00,WUHU216HW,2013-02-07 17:30:00,
2013-02-07 12:35:00,24.1,9.4,30.25,SSW,203,1.3,1.3,53,0.00,,,0.00,WUHU216HW,2013-02-07 17:35:00,
2013-02-07 13:00:00,25.0,8.0,30.24,SSW,203,3.8,3.8,48,0.00,,,0.00,WUHU216HW,2013-02-07 18:00:00,
2013-02-07 13:05:00,25.0,8.0,30.24,SSW,203,3.8,3.8,48,0.00,,,0.00,WUHU216HW,2013-02-07 18:05:00,
2013-02-07 13:30:00,24.8,8.8,30.23,North,0,1.1,1.1,50,0.00,,,0.00,WUHU216HW,2013-02-07 18:30:00,
2013-02-07 13:35:00,24.8,8.8,30.23,North,0,1.1,1.1,50,0.00,,,0.00,WUHU216HW,2013-02-07 18:35:00,
2013-02-07 14:00:00,25.2,9.2,30.21,North,0,2.5,2.5,50,0.00,,,0.00,WUHU216HW,2013-02-07 19:00:00,
2013-02-07 14:05:00,25.2,9.2,30.21,North,0,2.5,2.5,50,0.00,,,0.00,WUHU216HW,2013-02-07 19:05:00,
2013-02-07 14:30:00,25.4,10.2,30.19,North,0,5.4,5.4,52,0.00,,,0.00,WUHU216HW,2013-02-07 19:30:00,
2013-02-07 14:35:00,25.4,10.2,30.19,North,0,5.4,5.4,52,0.00,,,0.00,WUHU216HW,2013-02-07 19:35:00,
2013-02-07 15:00:00,25.6,9.9,30.18,SSW,203,1.1,1.1,51,0.00,,,0.00,WUHU216HW,2013-02-07 20:00:00,
2013-02-07 15:05:00,25.6,9.9,30.18,SSW,203,1.1,1.1,51,0.00,,,0.00,WUHU216HW,2013-02-07 20:05:00,
2013-02-07 15:30:00,26.3,10.1,30.17,North,0,4.0,4.0,50,0.00,,,0.00,WUHU216HW,2013-02-07 20:30:00,
2013-02-07 15:35:00,26.3,10.1,30.17,North,0,4.0,4.0,50,0.00,,,0.00,WUHU216HW,2013-02-07 20:35:00,
2013-02-07 16:00:00,24.8,9.3,30.16,North,0,2.0,2.0,51,0.00,,,0.00,WUHU216HW,2013-02-07 21:00:00,
2013-02-07 16:04:00,24.8,9.3,30.16,North,0,2.0,2.0,51,0.00,,,0.00,WUHU216HW,2013-02-07 21:04:00,
2013-02-07 16:05:00,24.8,9.3,30.16,North,0,2.0,2.0,51,0.00,,,0.00,WUHU216HW,2013-02-07 21:05:00,
2013-02-07 16:30:00,24.3,9.2,30.16,North,0,3.6,3.6,52,0.00,,,0.00,WUHU216HW,2013-02-07 21:30:00,
2013-02-07 16:35:00,24.3,9.2,30.16,North,0,3.6,3.6,52,0.00,,,0.00,WUHU216HW,2013-02-07 21:35:00,
2013-02-07 17:00:00,23.8,9.1,30.16,SSW,203,4.9,4.9,53,0.00,,,0.00,WUHU216HW,2013-02-07 22:00:00,
2013-02-07 17:05:00,23.8,9.1,30.16,SSW,203,4.9,4.9,53,0.00,,,0.00,WUHU216HW,2013-02-07 22:05:00,
2013-02-07 17:30:00,23.0,8.8,30.17,North,0,1.1,1.1,54,0.00,,,0.00,WUHU216HW,2013-02-07 22:30:00,
2013-02-07 17:35:00,23.0,8.8,30.17,North,0,1.1,1.1,54,0.00,,,0.00,WUHU216HW,2013-02-07 22:35:00,
2013-02-07 18:00:00,22.7,8.5,30.18,SSW,203,11.4,11.4,54,0.00,,,0.00,WUHU216HW,2013-02-07 23:00:00,
2013-02-07 18:05:00,22.7,8.5,30.18,SSW,203,11.4,11.4,54,0.00,,,0.00,WUHU216HW,2013-02-07 23:05:00,
2013-02-07 18:30:00,22.3,8.1,30.17,SSW,203,2.5,2.5,54,0.00,,,0.00,WUHU216HW,2013-02-07 23:30:00,
2013-02-07 18:35:00,22.3,8.1,30.17,SSW,203,2.5,2.5,54,0.00,,,0.00,WUHU216HW,2013-02-07 23:35:00,
2013-02-07 19:00:00,22.3,8.1,30.18,SSW,203,2.5,2.5,54,0.00,,,0.00,WUHU216HW,2013-02-08 00:00:00,
2013-02-07 19:05:00,22.3,8.1,30.18,SSW,203,2.5,2.5,54,0.00,,,0.00,WUHU216HW,2013-02-08 00:05:00,
2013-02-07 19:30:00,22.1,8.4,30.17,SSW,203,2.2,2.2,55,0.00,,,0.00,WUHU216HW,2013-02-08 00:30:00,
2013-02-07 19:35:00,22.1,8.4,30.17,SSW,203,2.2,2.2,55,0.00,,,0.00,WUHU216HW,2013-02-08 00:35:00,
2013-02-07 20:00:00,22.0,8.2,30.16,SSW,203,1.8,1.8,55,0.00,,,0.00,WUHU216HW,2013-02-08 01:00:00,
2013-02-07 20:05:00,22.0,8.2,30.16,SSW,203,1.8,1.8,55,0.00,,,0.00,WUHU216HW,2013-02-08 01:05:00,
2013-02-07 20:30:00,22.0,8.2,30.15,North,0,4.3,4.3,55,0.00,,,0.00,WUHU216HW,2013-02-08 01:30:00,
2013-02-07 20:35:00,22.0,8.2,30.15,North,0,4.3,4.3,55,0.00,,,0.00,WUHU216HW,2013-02-08 01:35:00,
2013-02-07 20:36:00,22.0,8.2,30.15,North,0,4.3,4.3,55,0.00,,,0.00,WUHU216HW,2013-02-08 01:36:00,
2013-02-07 21:00:00,21.6,7.8,30.16,SSW,203,2.5,2.5,55,0.00,,,0.00,WUHU216HW,2013-02-08 02:00:00,
2013-02-07 21:05:00,21.6,7.8,30.16,SSW,203,2.5,2.5,55,0.00,,,0.00,WUHU216HW,2013-02-08 02:05:00,
2013-02-07 21:30:00,21.4,8.0,30.15,SSW,203,2.9,2.9,56,0.00,,,0.00,WUHU216HW,2013-02-08 02:30:00,
2013-02-07 21:35:00,21.4,8.0,30.15,SSW,203,2.9,2.9,56,0.00,,,0.00,WUHU216HW,2013-02-08 02:35:00,
2013-02-07 22:00:00,21.2,7.5,30.14,North,0,1.8,1.8,55,0.00,,,0.00,WUHU216HW,2013-02-08 03:00:00,
2013-02-07 22:05:00,21.2,7.5,30.14,North,0,1.8,1.8,55,0.00,,,0.00,WUHU216HW,2013-02-08 03:05:00,
2013-02-07 22:30:00,20.7,7.4,30.13,SSW,203,1.3,1.3,56,0.00,,,0.00,WUHU216HW,2013-02-08 03:30:00,
2013-02-07 22:35:00,20.7,7.4,30.13,SSW,203,1.3,1.3,56,0.00,,,0.00,WUHU216HW,2013-02-08 03:35:00,
2013-02-07 23:00:00,20.9,8.4,30.12,North,0,1.6,1.6,58,0.00,,,0.00,WUHU216HW,2013-02-08 04:00:00,
2013-02-07 23:05:00,20.9,8.4,30.12,North,0,1.6,1.6,58,0.00,,,0.00,WUHU216HW,2013-02-08 04:05:00,
2013-02-07 23:30:00,20.7,8.2,30.10,SSW,203,0.9,0.9,58,0.00,,,0.00,WUHU216HW,2013-02-08 04:30:00,
2013-02-07 23:35:00,20.7,8.2,30.10,SSW,203,0.9,0.9,58,0.00,,,0.00,WUHU216HW,2013-02-08 04:35:00,